sensor_id;sensor_type;location;lat;lon;timestamp;pressure;altitude;pressure_sealevel;temperature;humidity
75424;BME280;64005;55.160;36.002;2024-01-30T00:00:58;100504.31;;;-1.74;79.59
75424;BME280;64005;55.160;36.002;2024-01-30T00:03:26;100501.34;;;-1.73;79.17
75424;BME280;64005;55.160;36.002;2024-01-30T00:05:55;100506.59;;;-1.71;79.76
75424;BME280;64005;55.160;36.002;2024-01-30T00:08:22;100510.97;;;-1.70;79.69
75424;BME280;64005;55.160;36.002;2024-01-30T00:10:49;100520.00;;;-1.70;78.88
75424;BME280;64005;55.160;36.002;2024-01-30T00:13:16;100521.06;;;-1.71;79.16
75424;BME280;64005;55.160;36.002;2024-01-30T00:16:19;100505.53;;;-1.70;79.06
75424;BME280;64005;55.160;36.002;2024-01-30T00:18:47;100494.63;;;-1.70;79.11
75424;BME280;64005;55.160;36.002;2024-01-30T00:21:14;100493.16;;;-1.73;79.40
75424;BME280;64005;55.160;36.002;2024-01-30T00:23:42;100489.38;;;-1.72;79.15
75424;BME280;64005;55.160;36.002;2024-01-30T00:26:09;100506.19;;;-1.75;79.52
75424;BME280;64005;55.160;36.002;2024-01-30T00:28:37;100500.13;;;-1.77;79.80
75424;BME280;64005;55.160;36.002;2024-01-30T00:31:05;100499.06;;;-1.76;79.69
75424;BME280;64005;55.160;36.002;2024-01-30T00:33:33;100491.50;;;-1.74;79.80
75424;BME280;64005;55.160;36.002;2024-01-30T00:36:01;100485.81;;;-1.72;79.77
75424;BME280;64005;55.160;36.002;2024-01-30T00:38:28;100479.09;;;-1.70;79.50
75424;BME280;64005;55.160;36.002;2024-01-30T00:40:56;100487.47;;;-1.71;79.36
75424;BME280;64005;55.160;36.002;2024-01-30T00:43:25;100485.59;;;-1.71;79.33
75424;BME280;64005;55.160;36.002;2024-01-30T00:45:54;100474.69;;;-1.71;79.16
75424;BME280;64005;55.160;36.002;2024-01-30T00:48:22;100453.69;;;-1.70;79.61
75424;BME280;64005;55.160;36.002;2024-01-30T00:50:49;100452.66;;;-1.69;79.18
75424;BME280;64005;55.160;36.002;2024-01-30T00:53:23;100455.38;;;-1.69;79.23
75424;BME280;64005;55.160;36.002;2024-01-30T00:56:04;100452.88;;;-1.71;79.64
75424;BME280;64005;55.160;36.002;2024-01-30T00:58:31;100436.94;;;-1.74;79.19
75424;BME280;64005;55.160;36.002;2024-01-30T01:01:06;100446.34;;;-1.70;79.31
75424;BME280;64005;55.160;36.002;2024-01-30T01:03:34;100446.13;;;-1.68;79.28
75424;BME280;64005;55.160;36.002;2024-01-30T01:06:01;100443.41;;;-1.68;79.35
75424;BME280;64005;55.160;36.002;2024-01-30T01:08:30;100440.69;;;-1.68;79.65
75424;BME280;64005;55.160;36.002;2024-01-30T01:10:57;100437.34;;;-1.70;79.85
75424;BME280;64005;55.160;36.002;2024-01-30T01:13:24;100443.00;;;-1.72;78.99
75424;BME280;64005;55.160;36.002;2024-01-30T01:15:53;100445.72;;;-1.72;79.08
75424;BME280;64005;55.160;36.002;2024-01-30T01:18:20;100449.28;;;-1.71;79.37
75424;BME280;64005;55.160;36.002;2024-01-30T01:20:50;100440.28;;;-1.72;79.10
75424;BME280;64005;55.160;36.002;2024-01-30T01:23:17;100455.38;;;-1.69;79.79
75424;BME280;64005;55.160;36.002;2024-01-30T01:25:46;100445.50;;;-1.70;79.99
75424;BME280;64005;55.160;36.002;2024-01-30T01:28:13;100456.44;;;-1.70;79.45
75424;BME280;64005;55.160;36.002;2024-01-30T01:30:49;100463.78;;;-1.71;79.60
75424;BME280;64005;55.160;36.002;2024-01-30T01:33:16;100461.88;;;-1.70;79.26
75424;BME280;64005;55.160;36.002;2024-01-30T01:35:43;100449.91;;;-1.69;79.91
75424;BME280;64005;55.160;36.002;2024-01-30T01:38:11;100459.16;;;-1.70;79.42
75424;BME280;64005;55.160;36.002;2024-01-30T01:40:38;100464.81;;;-1.72;79.33
75424;BME280;64005;55.160;36.002;2024-01-30T01:43:08;100464.00;;;-1.72;79.31
75424;BME280;64005;55.160;36.002;2024-01-30T01:45:35;100466.97;;;-1.74;79.93
75424;BME280;64005;55.160;36.002;2024-01-30T01:48:03;100476.19;;;-1.75;79.89
75424;BME280;64005;55.160;36.002;2024-01-30T01:54:05;100475.34;;;-1.75;79.40
75424;BME280;64005;55.160;36.002;2024-01-30T01:56:42;100471.34;;;-1.73;79.84
75424;BME280;64005;55.160;36.002;2024-01-30T01:59:11;100471.13;;;-1.71;79.23
75424;BME280;64005;55.160;36.002;2024-01-30T02:01:38;100478.25;;;-1.70;79.51
75424;BME280;64005;55.160;36.002;2024-01-30T02:04:07;100463.34;;;-1.68;79.56
75424;BME280;64005;55.160;36.002;2024-01-30T02:06:34;100471.28;;;-1.66;79.34
75424;BME280;64005;55.160;36.002;2024-01-30T02:09:01;100469.63;;;-1.67;79.40
75424;BME280;64005;55.160;36.002;2024-01-30T02:11:30;100469.41;;;-1.66;79.22
75424;BME280;64005;55.160;36.002;2024-01-30T02:14:02;100466.06;;;-1.68;79.37
75424;BME280;64005;55.160;36.002;2024-01-30T02:16:31;100454.72;;;-1.65;79.37
75424;BME280;64005;55.160;36.002;2024-01-30T02:18:58;100460.38;;;-1.66;80.10
75424;BME280;64005;55.160;36.002;2024-01-30T02:21:36;100455.16;;;-1.68;79.28
75424;BME280;64005;55.160;36.002;2024-01-30T02:24:04;100454.91;;;-1.66;79.71
75424;BME280;64005;55.160;36.002;2024-01-30T02:26:31;100454.13;;;-1.67;80.11
75424;BME280;64005;55.160;36.002;2024-01-30T02:28:58;100456.59;;;-1.65;79.48
75424;BME280;64005;55.160;36.002;2024-01-30T02:31:26;100451.75;;;-1.63;80.01
75424;BME280;64005;55.160;36.002;2024-01-30T02:34:08;100453.44;;;-1.62;79.44
75424;BME280;64005;55.160;36.002;2024-01-30T02:36:37;100447.75;;;-1.61;79.46
75424;BME280;64005;55.160;36.002;2024-01-30T02:39:04;100445.88;;;-1.60;79.76
75424;BME280;64005;55.160;36.002;2024-01-30T02:41:31;100441.22;;;-1.60;79.51
75424;BME280;64005;55.160;36.002;2024-01-30T02:43:58;100427.59;;;-1.60;80.20
75424;BME280;64005;55.160;36.002;2024-01-30T02:46:26;100428.22;;;-1.57;79.52
75424;BME280;64005;55.160;36.002;2024-01-30T02:48:53;100450.03;;;-1.57;79.78
75424;BME280;64005;55.160;36.002;2024-01-30T02:51:20;100428.22;;;-1.57;79.85
75424;BME280;64005;55.160;36.002;2024-01-30T02:53:49;100438.28;;;-1.58;79.72
75424;BME280;64005;55.160;36.002;2024-01-30T02:56:27;100430.09;;;-1.58;79.75
75424;BME280;64005;55.160;36.002;2024-01-30T02:58:53;100436.41;;;-1.57;80.00
75424;BME280;64005;55.160;36.002;2024-01-30T03:01:20;100432.00;;;-1.58;79.90
75424;BME280;64005;55.160;36.002;2024-01-30T03:03:50;100433.03;;;-1.60;79.66
75424;BME280;64005;55.160;36.002;2024-01-30T03:06:17;100436.59;;;-1.59;80.06
75424;BME280;64005;55.160;36.002;2024-01-30T03:08:46;100444.19;;;-1.61;79.93
75424;BME280;64005;55.160;36.002;2024-01-30T03:11:17;100447.97;;;-1.62;79.81
75424;BME280;64005;55.160;36.002;2024-01-30T03:13:44;100439.78;;;-1.62;80.10
75424;BME280;64005;55.160;36.002;2024-01-30T03:16:11;100443.38;;;-1.62;79.63
75424;BME280;64005;55.160;36.002;2024-01-30T03:18:39;100443.97;;;-1.60;79.45
75424;BME280;64005;55.160;36.002;2024-01-30T03:21:06;100447.31;;;-1.57;79.97
75424;BME280;64005;55.160;36.002;2024-01-30T03:23:33;100443.31;;;-1.55;80.06
75424;BME280;64005;55.160;36.002;2024-01-30T03:26:00;100438.47;;;-1.53;80.05
75424;BME280;64005;55.160;36.002;2024-01-30T03:28:29;100434.66;;;-1.52;79.53
75424;BME280;64005;55.160;36.002;2024-01-30T03:30:56;100444.75;;;-1.52;80.27
75424;BME280;64005;55.160;36.002;2024-01-30T03:33:23;100434.44;;;-1.50;80.26
75424;BME280;64005;55.160;36.002;2024-01-30T03:35:50;100439.69;;;-1.49;80.26
75424;BME280;64005;55.160;36.002;2024-01-30T03:38:25;100436.97;;;-1.49;79.68
75424;BME280;64005;55.160;36.002;2024-01-30T03:40:52;100447.66;;;-1.47;80.21
75424;BME280;64005;55.160;36.002;2024-01-30T03:43:19;100443.25;;;-1.48;80.23
75424;BME280;64005;55.160;36.002;2024-01-30T03:45:48;100437.34;;;-1.45;79.57
75424;BME280;64005;55.160;36.002;2024-01-30T03:48:30;100453.28;;;-1.42;80.19
75424;BME280;64005;55.160;36.002;2024-01-30T03:50:58;100436.69;;;-1.41;80.28
75424;BME280;64005;55.160;36.002;2024-01-30T03:53:27;100434.78;;;-1.40;80.04
75424;BME280;64005;55.160;36.002;2024-01-30T03:55:54;100450.09;;;-1.39;80.16
75424;BME280;64005;55.160;36.002;2024-01-30T03:58:22;100453.06;;;-1.41;79.79
75424;BME280;64005;55.160;36.002;2024-01-30T04:00:50;100461.47;;;-1.42;80.20
75424;BME280;64005;55.160;36.002;2024-01-30T04:03:17;100460.41;;;-1.41;79.62
75424;BME280;64005;55.160;36.002;2024-01-30T04:05:45;100455.78;;;-1.41;80.29
75424;BME280;64005;55.160;36.002;2024-01-30T04:08:12;100454.75;;;-1.40;79.75
75424;BME280;64005;55.160;36.002;2024-01-30T04:10:39;100449.88;;;-1.38;79.73
75424;BME280;64005;55.160;36.002;2024-01-30T04:13:15;100439.78;;;-1.37;80.12
75424;BME280;64005;55.160;36.002;2024-01-30T04:15:42;100439.38;;;-1.34;80.25
75424;BME280;64005;55.160;36.002;2024-01-30T04:18:10;100445.03;;;-1.36;80.13
75424;BME280;64005;55.160;36.002;2024-01-30T04:20:38;100443.75;;;-1.33;80.03
75424;BME280;64005;55.160;36.002;2024-01-30T04:23:05;100460.34;;;-1.35;80.40
75424;BME280;64005;55.160;36.002;2024-01-30T04:25:32;100467.25;;;-1.32;80.40
75424;BME280;64005;55.160;36.002;2024-01-30T04:28:04;100453.38;;;-1.31;80.20
75424;BME280;64005;55.160;36.002;2024-01-30T04:30:32;100458.63;;;-1.29;80.44
75424;BME280;64005;55.160;36.002;2024-01-30T04:32:59;100461.34;;;-1.29;80.18
75424;BME280;64005;55.160;36.002;2024-01-30T04:35:29;100455.69;;;-1.28;79.94
75424;BME280;64005;55.160;36.002;2024-01-30T04:37:56;100460.09;;;-1.27;80.55
75424;BME280;64005;55.160;36.002;2024-01-30T04:40:24;100454.63;;;-1.27;80.03
75424;BME280;64005;55.160;36.002;2024-01-30T04:42:51;100458.78;;;-1.24;79.79
75424;BME280;64005;55.160;36.002;2024-01-30T04:45:21;100456.47;;;-1.21;80.55
75424;BME280;64005;55.160;36.002;2024-01-30T04:47:49;100458.94;;;-1.19;80.50
75424;BME280;64005;55.160;36.002;2024-01-30T04:50:17;100474.47;;;-1.20;80.29
75424;BME280;64005;55.160;36.002;2024-01-30T04:52:45;100462.50;;;-1.18;80.04
75424;BME280;64005;55.160;36.002;2024-01-30T04:55:13;100468.81;;;-1.18;80.54
75424;BME280;64005;55.160;36.002;2024-01-30T04:57:40;100466.91;;;-1.17;79.99
75424;BME280;64005;55.160;36.002;2024-01-30T05:00:08;100469.22;;;-1.14;80.23
75424;BME280;64005;55.160;36.002;2024-01-30T05:02:36;100472.16;;;-1.16;80.41
75424;BME280;64005;55.160;36.002;2024-01-30T05:05:25;100463.50;;;-1.13;79.95
75424;BME280;64005;55.160;36.002;2024-01-30T05:08:04;100460.56;;;-1.11;79.87
75424;BME280;64005;55.160;36.002;2024-01-30T05:10:31;100455.94;;;-1.11;79.92
75424;BME280;64005;55.160;36.002;2024-01-30T05:13:18;100465.78;;;-1.10;80.52
75424;BME280;64005;55.160;36.002;2024-01-30T05:15:46;100456.56;;;-1.09;80.81
75424;BME280;64005;55.160;36.002;2024-01-30T05:18:16;100463.69;;;-1.08;80.43
75424;BME280;64005;55.160;36.002;2024-01-30T05:20:43;100464.28;;;-1.06;80.20
75424;BME280;64005;55.160;36.002;2024-01-30T05:23:12;100464.28;;;-1.06;80.15
75424;BME280;64005;55.160;36.002;2024-01-30T05:25:39;100469.72;;;-1.06;80.69
75424;BME280;64005;55.160;36.002;2024-01-30T05:28:07;100462.16;;;-1.04;80.77
75424;BME280;64005;55.160;36.002;2024-01-30T05:30:34;100449.97;;;-1.01;80.84
75424;BME280;64005;55.160;36.002;2024-01-30T05:33:01;100460.44;;;-0.98;79.96
75424;BME280;64005;55.160;36.002;2024-01-30T05:35:28;100459.38;;;-0.97;80.47
75424;BME280;64005;55.160;36.002;2024-01-30T05:37:56;100457.47;;;-0.97;80.00
75424;BME280;64005;55.160;36.002;2024-01-30T05:40:24;100452.09;;;-1.03;80.17
75424;BME280;64005;55.160;36.002;2024-01-30T05:42:52;100470.44;;;-0.92;80.25
75424;BME280;64005;55.160;36.002;2024-01-30T05:45:19;100477.59;;;-0.91;80.44
75424;BME280;64005;55.160;36.002;2024-01-30T05:47:46;100479.25;;;-0.90;80.13
75424;BME280;64005;55.160;36.002;2024-01-30T05:50:13;100482.63;;;-0.88;80.35
75424;BME280;64005;55.160;36.002;2024-01-30T05:52:41;100475.00;;;-0.86;80.59
75424;BME280;64005;55.160;36.002;2024-01-30T05:55:08;100479.66;;;-0.87;80.38
75424;BME280;64005;55.160;36.002;2024-01-30T05:57:37;100477.50;;;-0.85;80.28
75424;BME280;64005;55.160;36.002;2024-01-30T06:00:06;100480.03;;;-0.83;80.62
75424;BME280;64005;55.160;36.002;2024-01-30T06:02:36;100482.53;;;-0.82;80.51
75424;BME280;64005;55.160;36.002;2024-01-30T06:05:04;100483.13;;;-0.80;80.73
75424;BME280;64005;55.160;36.002;2024-01-30T06:07:38;100486.47;;;-0.77;80.52
75424;BME280;64005;55.160;36.002;2024-01-30T06:10:06;100487.09;;;-0.75;80.48
75424;BME280;64005;55.160;36.002;2024-01-30T06:12:34;100493.41;;;-0.75;81.09
75424;BME280;64005;55.160;36.002;2024-01-30T06:15:05;100501.38;;;-0.73;80.19
75424;BME280;64005;55.160;36.002;2024-01-30T06:17:57;100502.19;;;-0.73;80.14
75424;BME280;64005;55.160;36.002;2024-01-30T06:20:24;100505.75;;;-0.72;81.01
75424;BME280;64005;55.160;36.002;2024-01-30T06:22:52;100499.44;;;-0.73;80.10
75424;BME280;64005;55.160;36.002;2024-01-30T06:25:19;100508.88;;;-0.69;80.30
75424;BME280;64005;55.160;36.002;2024-01-30T06:28:01;100513.03;;;-0.66;80.57
75424;BME280;64005;55.160;36.002;2024-01-30T06:30:30;100522.91;;;-0.65;80.11
75424;BME280;64005;55.160;36.002;2024-01-30T06:32:57;100530.69;;;-0.62;80.17
75424;BME280;64005;55.160;36.002;2024-01-30T06:35:25;100533.41;;;-0.62;80.36
75424;BME280;64005;55.160;36.002;2024-01-30T06:37:52;100532.34;;;-0.61;80.14
75424;BME280;64005;55.160;36.002;2024-01-30T06:40:19;100525.00;;;-0.61;80.47
75424;BME280;64005;55.160;36.002;2024-01-30T06:42:50;100516.56;;;-0.59;81.09
75424;BME280;64005;55.160;36.002;2024-01-30T06:45:17;100522.84;;;-0.59;80.66
75424;BME280;64005;55.160;36.002;2024-01-30T06:48:08;100530.59;;;-0.56;80.90
75424;BME280;64005;55.160;36.002;2024-01-30T06:50:35;100517.78;;;-0.55;81.01
75424;BME280;64005;55.160;36.002;2024-01-30T06:53:02;100522.78;;;-0.52;80.98
75424;BME280;64005;55.160;36.002;2024-01-30T06:55:29;100514.13;;;-0.49;80.62
75424;BME280;64005;55.160;36.002;2024-01-30T06:57:57;100513.91;;;-0.48;80.73
75424;BME280;64005;55.160;36.002;2024-01-30T07:00:24;100519.97;;;-0.46;80.52
75424;BME280;64005;55.160;36.002;2024-01-30T07:02:51;100517.03;;;-0.44;81.11
75424;BME280;64005;55.160;36.002;2024-01-30T07:05:20;100514.91;;;-0.42;81.03
75424;BME280;64005;55.160;36.002;2024-01-30T07:08:05;100507.06;;;-0.38;80.63
75424;BME280;64005;55.160;36.002;2024-01-30T07:10:33;100509.34;;;-0.35;80.77
75424;BME280;64005;55.160;36.002;2024-01-30T07:13:00;100505.31;;;-0.33;80.32
75424;BME280;64005;55.160;36.002;2024-01-30T07:15:34;100507.47;;;-0.35;80.68
75424;BME280;64005;55.160;36.002;2024-01-30T07:18:02;100501.16;;;-0.35;80.63
75424;BME280;64005;55.160;36.002;2024-01-30T07:20:31;100508.06;;;-0.33;80.31
75424;BME280;64005;55.160;36.002;2024-01-30T07:23:19;100500.69;;;-0.32;80.56
75424;BME280;64005;55.160;36.002;2024-01-30T07:25:46;100497.28;;;-0.28;81.04
75424;BME280;64005;55.160;36.002;2024-01-30T07:28:25;100504.56;;;-0.22;80.60
75424;BME280;64005;55.160;36.002;2024-01-30T07:30:52;100498.19;;;-0.16;80.70
75424;BME280;64005;55.160;36.002;2024-01-30T07:33:47;100499.16;;;-0.10;80.66
75424;BME280;64005;55.160;36.002;2024-01-30T07:36:25;100496.78;;;-0.07;80.46
75424;BME280;64005;55.160;36.002;2024-01-30T07:38:53;100496.34;;;-0.04;80.72
75424;BME280;64005;55.160;36.002;2024-01-30T07:41:21;100502.78;;;0.02;80.66
75424;BME280;64005;55.160;36.002;2024-01-30T07:43:48;100512.22;;;0.06;81.36
75424;BME280;64005;55.160;36.002;2024-01-30T07:46:16;100514.25;;;0.11;80.71
75424;BME280;64005;55.160;36.002;2024-01-30T07:48:46;100505.44;;;0.09;80.96
75424;BME280;64005;55.160;36.002;2024-01-30T07:51:21;100521.16;;;0.13;81.06
75424;BME280;64005;55.160;36.002;2024-01-30T07:53:49;100514.88;;;0.13;80.96
75424;BME280;64005;55.160;36.002;2024-01-30T07:56:17;100524.88;;;0.19;80.54
75424;BME280;64005;55.160;36.002;2024-01-30T07:58:44;100510.72;;;0.22;80.66
75424;BME280;64005;55.160;36.002;2024-01-30T08:01:14;100521.78;;;0.27;80.70
75424;BME280;64005;55.160;36.002;2024-01-30T08:03:42;100517.78;;;0.29;81.15
75424;BME280;64005;55.160;36.002;2024-01-30T08:06:09;100521.97;;;0.32;81.02
75424;BME280;64005;55.160;36.002;2024-01-30T08:09:05;100513.50;;;0.33;80.67
75424;BME280;64005;55.160;36.002;2024-01-30T08:11:32;100523.75;;;0.38;80.70
75424;BME280;64005;55.160;36.002;2024-01-30T08:14:17;100517.59;;;0.43;80.81
75424;BME280;64005;55.160;36.002;2024-01-30T08:16:44;100521.28;;;0.48;81.12
75424;BME280;64005;55.160;36.002;2024-01-30T08:19:12;100522.50;;;0.52;81.16
75424;BME280;64005;55.160;36.002;2024-01-30T08:21:39;100525.38;;;0.57;80.44
75424;BME280;64005;55.160;36.002;2024-01-30T08:24:08;100526.44;;;0.56;80.90
75424;BME280;64005;55.160;36.002;2024-01-30T08:26:41;100531.31;;;0.54;80.98
75424;BME280;64005;55.160;36.002;2024-01-30T08:29:08;100538.69;;;0.54;80.53
75424;BME280;64005;55.160;36.002;2024-01-30T08:31:36;100523.56;;;0.51;80.25
75424;BME280;64005;55.160;36.002;2024-01-30T08:34:03;100526.53;;;0.50;80.35
75424;BME280;64005;55.160;36.002;2024-01-30T08:36:30;100534.28;;;0.53;80.64
75424;BME280;64005;55.160;36.002;2024-01-30T08:39:24;100528.09;;;0.57;80.54
75424;BME280;64005;55.160;36.002;2024-01-30T08:41:52;100524.88;;;0.60;81.14
75424;BME280;64005;55.160;36.002;2024-01-30T08:44:19;100517.66;;;0.66;81.17
75424;BME280;64005;55.160;36.002;2024-01-30T08:46:46;100517.19;;;0.69;81.27
75424;BME280;64005;55.160;36.002;2024-01-30T08:49:16;100523.88;;;0.73;80.90
75424;BME280;64005;55.160;36.002;2024-01-30T08:51:43;100514.22;;;0.70;80.69
75424;BME280;64005;55.160;36.002;2024-01-30T08:54:10;100513.84;;;0.67;80.65
75424;BME280;64005;55.160;36.002;2024-01-30T08:56:45;100517.50;;;0.61;80.08
75424;BME280;64005;55.160;36.002;2024-01-30T08:59:20;100522.41;;;0.59;80.32
75424;BME280;64005;55.160;36.002;2024-01-30T09:01:47;100527.03;;;0.58;80.86
75424;BME280;64005;55.160;36.002;2024-01-30T09:04:18;100516.44;;;0.62;80.18
75424;BME280;64005;55.160;36.002;2024-01-30T09:06:45;100522.75;;;0.62;80.68
75424;BME280;64005;55.160;36.002;2024-01-30T09:09:12;100515.59;;;0.61;80.29
75424;BME280;64005;55.160;36.002;2024-01-30T09:11:42;100521.69;;;0.63;80.78
75424;BME280;64005;55.160;36.002;2024-01-30T09:14:23;100518.34;;;0.61;80.65
75424;BME280;64005;55.160;36.002;2024-01-30T09:16:50;100521.34;;;0.60;80.33
75424;BME280;64005;55.160;36.002;2024-01-30T09:19:17;100507.66;;;0.60;79.99
75424;BME280;64005;55.160;36.002;2024-01-30T09:21:44;100514.78;;;0.61;80.49
75424;BME280;64005;55.160;36.002;2024-01-30T09:24:12;100510.38;;;0.60;80.40
75424;BME280;64005;55.160;36.002;2024-01-30T09:26:40;100496.69;;;0.60;80.44
75424;BME280;64005;55.160;36.002;2024-01-30T09:29:14;100516.09;;;0.58;80.63
75424;BME280;64005;55.160;36.002;2024-01-30T09:31:44;100502.41;;;0.58;80.23
75424;BME280;64005;55.160;36.002;2024-01-30T09:34:36;100510.63;;;0.58;80.49
75424;BME280;64005;55.160;36.002;2024-01-30T09:37:05;100511.44;;;0.59;80.12
75424;BME280;64005;55.160;36.002;2024-01-30T09:39:41;100514.53;;;0.62;80.58
75424;BME280;64005;55.160;36.002;2024-01-30T09:42:13;100502.06;;;0.66;80.83
75424;BME280;64005;55.160;36.002;2024-01-30T09:44:51;100511.69;;;0.69;80.21
75424;BME280;64005;55.160;36.002;2024-01-30T09:47:31;100507.91;;;0.70;80.43
75424;BME280;64005;55.160;36.002;2024-01-30T09:49:58;100513.16;;;0.71;80.05
75424;BME280;64005;55.160;36.002;2024-01-30T09:52:26;100494.00;;;0.83;80.87
75424;BME280;64005;55.160;36.002;2024-01-30T09:54:53;100493.66;;;0.91;80.76
75424;BME280;64005;55.160;36.002;2024-01-30T09:57:42;100496.50;;;0.96;80.63
75424;BME280;64005;55.160;36.002;2024-01-30T10:00:28;100488.41;;;1.01;80.52
75424;BME280;64005;55.160;36.002;2024-01-30T10:02:57;100485.66;;;1.01;80.42
75424;BME280;64005;55.160;36.002;2024-01-30T10:05:27;100497.13;;;0.98;80.45
75424;BME280;64005;55.160;36.002;2024-01-30T10:07:55;100490.78;;;0.98;80.46
75424;BME280;64005;55.160;36.002;2024-01-30T10:10:22;100482.81;;;0.96;80.08
75424;BME280;64005;55.160;36.002;2024-01-30T10:12:51;100478.16;;;0.97;80.54
75424;BME280;64005;55.160;36.002;2024-01-30T10:15:23;100474.81;;;0.95;80.00
75424;BME280;64005;55.160;36.002;2024-01-30T10:17:59;100479.72;;;0.93;80.10
75424;BME280;64005;55.160;36.002;2024-01-30T10:20:26;100486.00;;;0.93;80.22
75424;BME280;64005;55.160;36.002;2024-01-30T10:22:54;100486.28;;;0.92;80.45
75424;BME280;64005;55.160;36.002;2024-01-30T10:25:21;100484.22;;;0.87;79.92
75424;BME280;64005;55.160;36.002;2024-01-30T10:28:26;100477.31;;;0.85;80.29
75424;BME280;64005;55.160;36.002;2024-01-30T10:30:58;100484.31;;;0.80;80.14
75424;BME280;64005;55.160;36.002;2024-01-30T10:33:51;100476.72;;;0.83;80.11
75424;BME280;64005;55.160;36.002;2024-01-30T10:36:18;100477.56;;;0.83;79.92
75424;BME280;64005;55.160;36.002;2024-01-30T10:38:55;100472.31;;;0.82;80.02
75424;BME280;64005;55.160;36.002;2024-01-30T10:41:45;100486.13;;;0.87;79.75
75424;BME280;64005;55.160;36.002;2024-01-30T10:44:18;100472.78;;;0.78;80.33
75424;BME280;64005;55.160;36.002;2024-01-30T10:46:53;100486.59;;;0.84;80.27
75424;BME280;64005;55.160;36.002;2024-01-30T10:49:25;100489.22;;;0.78;79.69
75424;BME280;64005;55.160;36.002;2024-01-30T10:51:52;100485.88;;;0.76;80.17
75424;BME280;64005;55.160;36.002;2024-01-30T10:54:20;100492.66;;;0.74;79.88
75424;BME280;64005;55.160;36.002;2024-01-30T10:56:48;100493.75;;;0.73;79.73
75424;BME280;64005;55.160;36.002;2024-01-30T10:59:22;100492.91;;;0.72;79.62
75424;BME280;64005;55.160;36.002;2024-01-30T11:02:05;100499.34;;;0.66;79.98
75424;BME280;64005;55.160;36.002;2024-01-30T11:04:38;100473.00;;;0.65;79.59
75424;BME280;64005;55.160;36.002;2024-01-30T11:07:14;100480.97;;;0.67;79.49
75424;BME280;64005;55.160;36.002;2024-01-30T11:09:48;100483.47;;;0.68;80.16
75424;BME280;64005;55.160;36.002;2024-01-30T11:12:39;100498.50;;;0.66;79.45
75424;BME280;64005;55.160;36.002;2024-01-30T11:15:09;100489.19;;;0.67;80.03
75424;BME280;64005;55.160;36.002;2024-01-30T11:17:54;100479.56;;;0.64;79.82
75424;BME280;64005;55.160;36.002;2024-01-30T11:20:29;100479.56;;;0.64;79.60
75424;BME280;64005;55.160;36.002;2024-01-30T11:22:58;100484.81;;;0.66;79.60
75424;BME280;64005;55.160;36.002;2024-01-30T11:25:25;100489.19;;;0.67;79.96
75424;BME280;64005;55.160;36.002;2024-01-30T11:27:53;100486.00;;;0.70;79.55
75424;BME280;64005;55.160;36.002;2024-01-30T11:30:22;100489.34;;;0.72;80.13
75424;BME280;64005;55.160;36.002;2024-01-30T11:32:59;100490.28;;;0.77;79.54
75424;BME280;64005;55.160;36.002;2024-01-30T11:35:45;100486.59;;;0.84;79.77
75424;BME280;64005;55.160;36.002;2024-01-30T11:38:14;100479.56;;;0.88;80.10
75424;BME280;64005;55.160;36.002;2024-01-30T11:40:41;100474.25;;;0.93;79.77
75424;BME280;64005;55.160;36.002;2024-01-30T11:43:10;100461.34;;;0.93;80.03
75424;BME280;64005;55.160;36.002;2024-01-30T11:45:38;100457.69;;;0.99;80.30
75424;BME280;64005;55.160;36.002;2024-01-30T11:48:07;100467.31;;;1.02;79.89
75424;BME280;64005;55.160;36.002;2024-01-30T11:50:38;100462.56;;;0.97;80.34
75424;BME280;64005;55.160;36.002;2024-01-30T11:53:07;100477.59;;;1.06;79.45
75424;BME280;64005;55.160;36.002;2024-01-30T11:55:34;100469.22;;;1.01;79.89
75424;BME280;64005;55.160;36.002;2024-01-30T11:58:03;100469.44;;;1.00;79.98
75424;BME280;64005;55.160;36.002;2024-01-30T12:00:31;100474.94;;;1.00;80.07
75424;BME280;64005;55.160;36.002;2024-01-30T12:02:59;100473.63;;;1.02;79.94
75424;BME280;64005;55.160;36.002;2024-01-30T12:05:28;100472.78;;;1.02;79.43
75424;BME280;64005;55.160;36.002;2024-01-30T12:07:55;100472.56;;;1.03;80.17
75424;BME280;64005;55.160;36.002;2024-01-30T12:10:26;100471.72;;;1.03;80.18
75424;BME280;64005;55.160;36.002;2024-01-30T12:12:53;100471.72;;;1.03;80.16
75424;BME280;64005;55.160;36.002;2024-01-30T12:15:22;100487.56;;;1.01;79.51
75424;BME280;64005;55.160;36.002;2024-01-30T12:18:06;100499.25;;;0.96;79.42
75424;BME280;64005;55.160;36.002;2024-01-30T12:20:33;100495.31;;;0.92;79.88
75424;BME280;64005;55.160;36.002;2024-01-30T12:23:01;100501.38;;;0.94;79.59
75424;BME280;64005;55.160;36.002;2024-01-30T12:25:29;100491.25;;;0.95;79.69
75424;BME280;64005;55.160;36.002;2024-01-30T12:27:57;100504.38;;;0.93;79.71
75424;BME280;64005;55.160;36.002;2024-01-30T12:30:25;100499.97;;;0.92;79.81
75424;BME280;64005;55.160;36.002;2024-01-30T12:32:52;100484.81;;;0.89;79.67
75424;BME280;64005;55.160;36.002;2024-01-30T12:35:20;100491.03;;;0.85;79.18
75424;BME280;64005;55.160;36.002;2024-01-30T12:37:48;100485.03;;;0.76;79.60
75424;BME280;64005;55.160;36.002;2024-01-30T12:40:16;100489.56;;;0.70;79.72
75424;BME280;64005;55.160;36.002;2024-01-30T12:42:47;100492.75;;;0.67;79.33
75424;BME280;64005;55.160;36.002;2024-01-30T12:45:15;100487.53;;;0.66;79.50
75424;BME280;64005;55.160;36.002;2024-01-30T12:47:45;100480.16;;;0.66;79.22
75424;BME280;64005;55.160;36.002;2024-01-30T12:50:13;100477.16;;;0.68;79.92
75424;BME280;64005;55.160;36.002;2024-01-30T12:52:42;100476.94;;;0.69;79.42
75424;BME280;64005;55.160;36.002;2024-01-30T12:55:09;100477.53;;;0.71;79.46
75424;BME280;64005;55.160;36.002;2024-01-30T12:57:36;100479.44;;;0.71;79.41
75424;BME280;64005;55.160;36.002;2024-01-30T13:00:08;100487.19;;;0.74;80.05
75424;BME280;64005;55.160;36.002;2024-01-30T13:02:35;100476.59;;;0.77;79.49